Time;durP1;ratioP1;P1;durP2;ratioP2;P2;SDS_P1;SDS_P2;PMS_P1;PMS_P2;Temp;Humidity;BMP_temperature;BMP_pressure;BME280_temperature;BME280_humidity;BME280_pressure;Samples;Min_cycle;Max_cycle;Signal;HPM_P1;HPM_P2
2021/11/07 00:06:57;;;;;;;13.20;8.43;;;10.90;75.00;;;;;;4895055;29;20036;-64
2021/11/07 00:09:41;;;;;;;13.93;7.93;;;10.90;75.00;;;;;;4887635;29;20441;-65
2021/11/07 00:12:17;;;;;;;11.45;6.85;;;10.80;75.20;;;;;;4893045;29;20047;-65
2021/11/07 00:14:49;;;;;;;15.68;7.30;;;10.80;75.30;;;;;;4894388;29;20068;-64
2021/11/07 00:17:18;;;;;;;12.07;7.43;;;10.80;75.30;;;;;;4892941;29;20496;-64
2021/11/07 00:20:09;;;;;;;10.50;7.07;;;10.70;75.40;;;;;;4893156;29;20417;-64
2021/11/07 00:25:14;;;;;;;11.25;7.10;;;10.60;75.60;;;;;;4894204;29;20036;-65
2021/11/07 00:27:47;;;;;;;13.43;6.72;;;10.60;75.80;;;;;;4886930;29;20044;-65
2021/11/07 00:38:00;;;;;;;11.25;5.22;;;10.60;76.40;;;;;;4890633;29;20028;-65
2021/11/07 00:43:08;;;;;;;8.77;4.35;;;10.60;76.80;;;;;;4892735;29;20025;-64
2021/11/07 00:50:58;;;;;;;8.23;4.43;;;10.70;77.00;;;;;;4892028;29;20041;-65
2021/11/07 00:58:56;;;;;;;7.65;3.67;;;10.80;76.90;;;;;;4893129;29;20076;-65
2021/11/07 01:01:28;;;;;;;7.65;3.67;;;10.90;76.90;;;;;;4892397;29;20033;-64
2021/11/07 01:04:03;;;;;;;7.70;3.70;;;10.90;76.90;;;;;;4892652;29;20024;-65
2021/11/07 01:06:36;;;;;;;8.13;4.03;;;10.90;77.00;;;;;;4894092;29;20044;-65
2021/11/07 01:09:03;;;;;;;7.15;3.88;;;11.00;77.60;;;;;;4888298;29;20053;-65
2021/11/07 01:11:33;;;;;;;8.30;3.92;;;11.00;78.00;;;;;;4891782;29;20040;-64
2021/11/07 01:14:03;;;;;;;11.48;4.13;;;11.00;77.80;;;;;;4896198;29;20039;-65
2021/11/07 01:16:33;;;;;;;8.30;4.00;;;11.10;78.10;;;;;;4892091;29;20115;-65
2021/11/07 01:19:02;;;;;;;9.13;4.50;;;11.10;77.80;;;;;;4893125;29;20436;-65
2021/11/07 01:21:37;;;;;;;7.13;4.00;;;11.20;77.70;;;;;;4893664;29;20029;-64
2021/11/07 01:24:12;;;;;;;8.35;4.00;;;11.20;77.80;;;;;;4895923;29;20400;-64
2021/11/07 01:26:41;;;;;;;10.88;3.78;;;11.20;77.70;;;;;;4892918;29;20051;-65
2021/11/07 01:29:16;;;;;;;8.93;4.18;;;11.30;77.60;;;;;;4892377;29;20433;-64
2021/11/07 01:31:48;;;;;;;7.35;3.88;;;11.30;77.50;;;;;;4893256;29;20064;-65
2021/11/07 01:37:15;;;;;;;9.43;3.90;;;11.30;77.40;;;;;;4889010;29;20127;-65
2021/11/07 01:45:14;;;;;;;9.65;3.55;;;11.30;77.60;;;;;;4874323;29;20096;-65
2021/11/07 01:47:48;;;;;;;7.65;4.13;;;11.30;77.50;;;;;;4872139;29;20540;-65
2021/11/07 01:50:14;;;;;;;9.50;4.10;;;11.30;77.70;;;;;;4869783;29;20049;-65
2021/11/07 01:52:42;;;;;;;7.88;3.72;;;11.30;78.00;;;;;;4870963;29;20063;-65
2021/11/07 01:55:08;;;;;;;8.85;4.00;;;11.30;78.00;;;;;;4870804;29;20062;-65
2021/11/07 01:57:37;;;;;;;9.52;3.75;;;11.30;78.10;;;;;;4871116;29;20061;-65
2021/11/07 02:00:14;;;;;;;6.75;3.50;;;11.30;78.00;;;;;;4873364;29;20563;-65
2021/11/07 02:02:40;;;;;;;10.15;3.83;;;11.40;78.10;;;;;;4871199;29;20056;-65
2021/11/07 02:05:07;;;;;;;7.10;3.80;;;11.40;78.20;;;;;;4872055;29;20477;-64
2021/11/07 02:07:34;;;;;;;9.52;3.63;;;11.40;78.20;;;;;;4872907;29;20048;-64
2021/11/07 02:10:04;;;;;;;7.43;3.67;;;11.40;78.00;;;;;;4870656;29;20478;-65
2021/11/07 02:12:29;;;;;;;8.32;3.38;;;11.40;77.90;;;;;;4878383;29;20045;-65
2021/11/07 02:14:55;;;;;;;11.10;3.58;;;11.40;77.80;;;;;;4891554;29;20056;-64
2021/11/07 02:17:21;;;;;;;7.70;3.40;;;11.40;78.10;;;;;;4891076;29;20516;-64
2021/11/07 02:19:47;;;;;;;7.30;3.35;;;11.40;78.10;;;;;;4884901;29;20168;-64
2021/11/07 02:22:14;;;;;;;7.82;3.88;;;11.40;78.30;;;;;;4892146;29;20041;-64
2021/11/07 02:24:41;;;;;;;12.30;3.28;;;11.40;78.10;;;;;;4892822;29;20029;-64
2021/11/07 02:27:08;;;;;;;6.90;3.38;;;11.40;78.20;;;;;;4895146;29;20035;-64
2021/11/07 02:29:36;;;;;;;11.90;3.60;;;11.40;78.10;;;;;;4891572;29;20028;-64
2021/11/07 02:32:03;;;;;;;7.30;2.97;;;11.50;78.10;;;;;;4892552;29;20234;-65
2021/11/07 02:34:30;;;;;;;7.50;3.33;;;11.50;78.10;;;;;;4890642;29;20058;-65
2021/11/07 02:36:57;;;;;;;5.95;2.92;;;11.50;78.20;;;;;;4891237;29;20055;-64
2021/11/07 02:39:25;;;;;;;9.73;3.40;;;11.50;78.00;;;;;;4893630;29;20043;-64
2021/11/07 02:41:51;;;;;;;8.07;3.10;;;11.50;78.30;;;;;;4893131;29;20121;-64
2021/11/07 02:44:30;;;;;;;10.50;3.33;;;11.50;78.60;;;;;;4888829;29;20080;-64
2021/11/07 02:46:56;;;;;;;7.13;3.20;;;11.50;78.70;;;;;;4889590;29;20398;-64
2021/11/07 02:49:23;;;;;;;8.10;3.22;;;11.50;78.80;;;;;;4895326;29;20037;-65
2021/11/07 02:51:49;;;;;;;6.72;3.20;;;11.50;78.70;;;;;;4887442;29;20037;-65
2021/11/07 02:54:15;;;;;;;8.38;3.40;;;11.50;78.90;;;;;;4897522;29;20035;-64
2021/11/07 02:56:41;;;;;;;7.80;3.45;;;11.50;79.00;;;;;;4897055;29;20076;-64
2021/11/07 02:59:10;;;;;;;6.78;3.42;;;11.50;79.20;;;;;;4891863;29;20492;-64
2021/11/07 03:01:36;;;;;;;7.40;3.50;;;11.50;79.30;;;;;;4894243;29;20028;-64
2021/11/07 03:04:04;;;;;;;5.97;3.28;;;11.50;80.00;;;;;;4893774;29;20560;-64
2021/11/07 03:06:32;;;;;;;8.75;3.25;;;11.50;80.20;;;;;;4894261;29;20424;-64
2021/11/07 03:08:58;;;;;;;9.10;3.70;;;11.50;80.10;;;;;;4897309;29;20029;-65
2021/11/07 03:11:23;;;;;;;7.55;3.30;;;11.50;80.30;;;;;;4896018;29;20043;-64
2021/11/07 03:13:50;;;;;;;9.25;3.50;;;11.50;80.30;;;;;;4894837;29;20174;-65
2021/11/07 03:16:16;;;;;;;7.07;3.40;;;11.50;81.60;;;;;;4893910;29;20492;-65
2021/11/07 03:18:43;;;;;;;9.18;3.40;;;11.50;80.80;;;;;;4894305;29;20040;-65
2021/11/07 03:21:11;;;;;;;8.23;3.53;;;11.50;81.00;;;;;;4897354;29;20039;-65
2021/11/07 03:23:39;;;;;;;6.45;3.20;;;11.50;81.20;;;;;;4893089;29;20025;-64
2021/11/07 03:26:15;;;;;;;7.43;3.28;;;11.50;81.40;;;;;;4895359;29;20116;-64
2021/11/07 03:28:42;;;;;;;6.20;3.30;;;11.50;81.70;;;;;;4895395;29;20031;-64
2021/11/07 03:31:20;;;;;;;8.05;3.30;;;11.50;81.70;;;;;;4893590;29;20488;-65
2021/11/07 03:33:49;;;;;;;6.65;3.00;;;11.40;82.00;;;;;;4893633;29;20481;-65
2021/11/07 03:36:20;;;;;;;6.45;3.10;;;11.40;82.20;;;;;;4891484;29;20397;-65
2021/11/07 03:38:49;;;;;;;8.73;2.97;;;11.40;82.50;;;;;;4894824;29;20041;-64
2021/11/07 03:41:16;;;;;;;7.35;3.03;;;11.40;82.40;;;;;;4893536;29;20822;-64
2021/11/07 03:43:42;;;;;;;6.82;2.90;;;11.40;82.40;;;;;;4894811;29;20049;-64
2021/11/07 03:46:10;;;;;;;6.97;3.00;;;11.40;82.70;;;;;;4891735;29;20587;-65
2021/11/07 03:48:36;;;;;;;5.85;3.13;;;11.40;82.70;;;;;;4894764;29;20021;-65
2021/11/07 03:51:04;;;;;;;5.68;2.90;;;11.50;82.80;;;;;;4895368;29;20036;-65
2021/11/07 03:53:30;;;;;;;5.93;2.65;;;11.50;82.90;;;;;;4894830;29;20084;-65
2021/11/07 03:55:56;;;;;;;5.05;2.45;;;11.50;82.80;;;;;;4890509;29;20036;-64
2021/11/07 03:58:22;;;;;;;9.60;3.03;;;11.50;83.00;;;;;;4894417;29;20033;-65
2021/11/07 04:00:48;;;;;;;7.53;2.72;;;11.50;83.40;;;;;;4894559;29;20531;-65
2021/11/07 04:03:14;;;;;;;7.80;2.80;;;11.50;83.40;;;;;;4895635;29;20037;-65
2021/11/07 04:05:40;;;;;;;7.38;2.63;;;11.50;83.60;;;;;;4894663;29;20114;-65
2021/11/07 04:08:07;;;;;;;8.20;2.42;;;11.50;83.60;;;;;;4893195;29;20033;-65
2021/11/07 04:10:34;;;;;;;7.40;2.60;;;11.60;83.80;;;;;;4893184;29;20310;-64
2021/11/07 04:13:00;;;;;;;6.35;2.28;;;11.50;83.70;;;;;;4894832;29;20073;-65
2021/11/07 04:15:26;;;;;;;5.90;2.70;;;11.60;83.90;;;;;;4894272;29;20032;-65
2021/11/07 04:17:52;;;;;;;4.65;2.40;;;11.60;84.00;;;;;;4896650;29;20039;-65
2021/11/07 04:20:19;;;;;;;5.97;2.50;;;11.60;84.10;;;;;;4892919;29;20020;-64
2021/11/07 04:22:46;;;;;;;6.38;2.40;;;11.60;83.90;;;;;;4893189;29;20108;-64
2021/11/07 04:25:12;;;;;;;6.05;2.85;;;11.60;83.90;;;;;;4892686;29;20541;-64
2021/11/07 04:27:38;;;;;;;5.93;2.67;;;11.60;83.80;;;;;;4894756;29;20028;-65
2021/11/07 04:30:06;;;;;;;7.65;2.60;;;11.60;83.90;;;;;;4896495;29;20032;-65
2021/11/07 04:32:32;;;;;;;6.53;2.70;;;11.60;84.30;;;;;;4894095;29;20560;-64
2021/11/07 04:34:58;;;;;;;4.38;2.47;;;11.60;84.30;;;;;;4894109;29;20029;-64
2021/11/07 04:37:24;;;;;;;6.22;2.70;;;11.60;84.60;;;;;;4894205;29;20131;-65
2021/11/07 04:39:50;;;;;;;6.85;2.70;;;11.70;84.70;;;;;;4892396;29;20190;-64
2021/11/07 04:42:16;;;;;;;6.30;2.83;;;11.60;85.00;;;;;;4893491;29;20112;-65
2021/11/07 04:44:42;;;;;;;7.85;2.65;;;11.60;84.90;;;;;;4893059;29;20044;-65
2021/11/07 04:47:09;;;;;;;7.45;2.80;;;11.70;85.00;;;;;;4892445;29;20036;-65
2021/11/07 04:49:35;;;;;;;7.07;2.95;;;11.60;85.00;;;;;;4894212;29;20068;-65
2021/11/07 04:52:01;;;;;;;4.90;2.60;;;11.70;85.10;;;;;;4892568;29;20044;-64
2021/11/07 04:54:27;;;;;;;5.28;2.80;;;11.70;85.10;;;;;;4893994;29;20021;-64
2021/11/07 04:56:53;;;;;;;7.10;2.80;;;11.70;85.10;;;;;;4889112;29;20028;-64
2021/11/07 04:59:19;;;;;;;6.47;2.80;;;11.70;85.40;;;;;;4893364;29;20123;-65
2021/11/07 05:01:45;;;;;;;7.97;3.03;;;11.70;85.50;;;;;;4895103;29;20051;-64
2021/11/07 05:04:11;;;;;;;6.18;2.80;;;11.70;85.60;;;;;;4892043;29;20374;-64
2021/11/07 05:06:37;;;;;;;6.20;2.80;;;11.70;85.70;;;;;;4893635;29;20048;-64
2021/11/07 05:09:05;;;;;;;7.53;3.40;;;11.70;85.70;;;;;;4895808;29;20039;-65
2021/11/07 05:11:31;;;;;;;8.65;3.35;;;11.70;85.60;;;;;;4893526;29;20504;-65
2021/11/07 05:13:57;;;;;;;7.05;3.00;;;11.70;86.00;;;;;;4891319;29;20024;-65
2021/11/07 05:16:23;;;;;;;8.40;3.20;;;11.70;86.00;;;;;;4892384;29;20039;-65
2021/11/07 05:18:49;;;;;;;8.13;3.30;;;11.70;86.00;;;;;;4892349;29;20036;-65
2021/11/07 05:21:15;;;;;;;7.45;3.42;;;11.70;86.10;;;;;;4893411;29;20055;-65
2021/11/07 05:23:41;;;;;;;7.97;3.28;;;11.70;86.10;;;;;;4893253;29;20047;-65
2021/11/07 05:26:07;;;;;;;8.75;3.70;;;11.70;86.10;;;;;;4885270;29;20037;-65
2021/11/07 05:28:34;;;;;;;8.18;3.53;;;11.70;86.10;;;;;;4885368;29;20563;-64
2021/11/07 05:31:00;;;;;;;8.13;3.15;;;11.70;86.10;;;;;;4893056;29;20040;-65
2021/11/07 05:33:26;;;;;;;8.02;3.60;;;11.70;86.10;;;;;;4893552;29;20514;-65
2021/11/07 05:35:52;;;;;;;7.63;3.17;;;11.70;86.60;;;;;;4893700;29;20396;-65
2021/11/07 05:38:19;;;;;;;7.13;3.10;;;11.60;86.50;;;;;;4890082;29;20074;-65
2021/11/07 05:40:45;;;;;;;5.13;3.05;;;11.60;86.50;;;;;;4891269;29;20029;-64
2021/11/07 05:43:12;;;;;;;6.85;3.03;;;11.60;86.60;;;;;;4890465;29;20025;-65
2021/11/07 05:45:38;;;;;;;7.88;3.20;;;11.60;86.60;;;;;;4892989;29;20041;-65
2021/11/07 05:48:06;;;;;;;7.63;3.15;;;11.60;87.40;;;;;;4887079;29;20036;-64
2021/11/07 05:50:33;;;;;;;4.95;2.83;;;11.60;86.80;;;;;;4892359;29;20128;-65
2021/11/07 05:52:59;;;;;;;6.45;2.88;;;11.60;86.90;;;;;;4891250;29;20080;-65
2021/11/07 05:55:26;;;;;;;5.28;2.53;;;11.60;86.70;;;;;;4887148;29;20033;-65
2021/11/07 05:57:52;;;;;;;4.70;2.70;;;11.70;86.90;;;;;;4891588;29;20057;-65
2021/11/07 06:00:19;;;;;;;6.95;3.00;;;11.70;86.80;;;;;;4894250;29;20029;-65
2021/11/07 06:02:47;;;;;;;7.07;2.50;;;11.70;86.50;;;;;;4893635;29;20116;-65
2021/11/07 06:05:14;;;;;;;8.32;3.20;;;11.70;86.30;;;;;;4894018;29;20041;-65
2021/11/07 06:07:40;;;;;;;7.72;2.70;;;11.80;86.70;;;;;;4891932;29;20035;-66
2021/11/07 06:10:07;;;;;;;7.20;2.83;;;11.70;86.60;;;;;;4889665;29;20489;-66
2021/11/07 06:12:33;;;;;;;7.72;3.00;;;11.80;86.50;;;;;;4893011;29;20032;-65
2021/11/07 06:14:59;;;;;;;6.43;2.70;;;11.80;86.90;;;;;;4887279;29;20031;-65
2021/11/07 06:17:25;;;;;;;6.13;2.70;;;11.80;86.70;;;;;;4892060;29;20051;-65
2021/11/07 06:19:51;;;;;;;10.18;2.90;;;11.80;86.60;;;;;;4893429;29;20056;-64
2021/11/07 06:22:17;;;;;;;8.18;3.00;;;11.80;86.70;;;;;;4894047;29;20133;-65
2021/11/07 06:24:43;;;;;;;6.45;2.90;;;11.80;86.70;;;;;;4894322;29;20094;-65
2021/11/07 06:27:09;;;;;;;7.82;3.13;;;11.80;86.60;;;;;;4898300;29;20037;-66
2021/11/07 06:29:34;;;;;;;6.47;2.70;;;11.90;86.70;;;;;;4896837;29;20040;-66
2021/11/07 06:32:00;;;;;;;5.28;2.75;;;11.90;86.80;;;;;;4892634;29;20119;-66
2021/11/07 06:34:27;;;;;;;5.55;2.83;;;11.90;86.90;;;;;;4891423;29;20061;-65
2021/11/07 06:36:54;;;;;;;6.13;2.90;;;11.90;86.90;;;;;;4896365;29;20089;-66
2021/11/07 06:39:21;;;;;;;7.65;2.97;;;11.90;86.80;;;;;;4895876;29;20040;-66
2021/11/07 06:41:47;;;;;;;9.00;3.00;;;11.90;86.80;;;;;;4891456;29;20567;-66
2021/11/07 06:44:14;;;;;;;6.25;2.78;;;11.90;86.80;;;;;;4888478;29;20056;-66
2021/11/07 06:46:41;;;;;;;8.65;3.20;;;11.90;86.90;;;;;;4894555;29;20538;-66
2021/11/07 06:49:10;;;;;;;7.72;3.00;;;11.90;87.00;;;;;;4889399;29;20373;-66
2021/11/07 06:51:38;;;;;;;6.93;3.05;;;12.00;87.50;;;;;;4889181;29;20381;-66
2021/11/07 06:54:04;;;;;;;6.88;2.78;;;12.00;87.30;;;;;;4898507;29;20031;-66
2021/11/07 06:56:29;;;;;;;6.93;2.67;;;11.90;87.60;;;;;;4894312;29;20059;-66
2021/11/07 06:58:57;;;;;;;8.23;2.78;;;12.00;87.70;;;;;;4894728;29;20024;-66
2021/11/07 07:01:23;;;;;;;10.75;2.85;;;12.00;87.50;;;;;;4893721;29;20052;-66
2021/11/07 07:03:49;;;;;;;7.00;2.72;;;12.00;87.70;;;;;;4893601;29;20097;-66
2021/11/07 07:06:16;;;;;;;9.65;3.00;;;12.00;87.70;;;;;;4891978;29;20461;-66
2021/11/07 07:08:50;;;;;;;7.75;2.90;;;12.00;87.70;;;;;;4891790;29;20063;-66
2021/11/07 07:11:24;;;;;;;7.28;2.83;;;12.00;87.70;;;;;;4895141;29;20036;-66
2021/11/07 07:14:13;;;;;;;7.07;2.55;;;12.10;87.80;;;;;;4894499;29;20029;-66
2021/11/07 07:17:42;;;;;;;8.68;3.00;;;12.10;87.70;;;;;;4893022;29;20036;-66
2021/11/07 07:19:47;;;;;;;6.75;2.70;;;12.10;87.90;;;;;;4894796;29;20073;-66
2021/11/07 07:33:00;;;;;;;6.35;2.60;;;12.20;88.40;;;;;;4858293;29;20089;-65
2021/11/07 07:35:27;;;;;;;6.72;2.60;;;12.30;88.50;;;;;;4853830;29;20045;-65
2021/11/07 07:37:55;;;;;;;10.00;2.58;;;12.30;88.30;;;;;;4852340;29;20041;-66
2021/11/07 07:40:22;;;;;;;7.05;2.35;;;12.40;88.30;;;;;;4854226;29;20529;-66
2021/11/07 07:42:48;;;;;;;6.78;2.53;;;12.40;88.30;;;;;;4854527;29;20042;-66
2021/11/07 07:45:15;;;;;;;5.60;2.45;;;12.40;88.20;;;;;;4856433;29;20454;-65
2021/11/07 07:47:43;;;;;;;5.75;2.58;;;12.50;88.30;;;;;;4858192;29;20030;-66
2021/11/07 07:50:14;;;;;;;6.57;2.13;;;12.60;88.00;;;;;;4856753;29;20106;-65
2021/11/07 07:52:41;;;;;;;6.53;2.28;;;12.60;88.00;;;;;;4855092;29;20057;-66
2021/11/07 07:55:08;;;;;;;4.75;2.05;;;12.60;88.90;;;;;;4853475;29;20418;-65
2021/11/07 07:57:35;;;;;;;5.97;2.63;;;12.60;88.00;;;;;;4855648;29;20110;-65
2021/11/07 08:00:03;;;;;;;5.75;2.47;;;12.70;88.10;;;;;;4857657;29;20038;-65
2021/11/07 08:02:29;;;;;;;7.60;2.38;;;12.70;88.00;;;;;;4853255;29;20065;-66
2021/11/07 08:04:55;;;;;;;6.68;2.40;;;12.70;88.90;;;;;;4855942;29;20382;-65
2021/11/07 08:07:20;;;;;;;6.95;2.70;;;12.70;88.00;;;;;;4852982;29;20588;-65
2021/11/07 08:09:46;;;;;;;5.50;2.60;;;12.80;88.10;;;;;;4889294;29;20033;-65
2021/11/07 08:12:12;;;;;;;8.55;2.33;;;12.80;88.10;;;;;;4896559;29;20032;-66
2021/11/07 08:14:38;;;;;;;4.80;2.25;;;12.80;88.10;;;;;;4893594;29;20028;-66
2021/11/07 08:17:04;;;;;;;7.50;2.65;;;12.90;88.10;;;;;;4893507;29;20044;-65
2021/11/07 08:19:30;;;;;;;8.02;2.65;;;13.00;88.10;;;;;;4894842;29;20496;-65
2021/11/07 08:21:56;;;;;;;8.38;2.50;;;13.10;87.90;;;;;;4891288;29;20033;-66
2021/11/07 08:24:22;;;;;;;5.82;2.75;;;13.10;87.90;;;;;;4895859;29;20039;-65
2021/11/07 08:26:48;;;;;;;6.15;2.70;;;13.10;87.90;;;;;;4884219;29;20082;-65
2021/11/07 08:29:16;;;;;;;9.02;3.03;;;13.10;88.10;;;;;;4884726;29;20411;-65
2021/11/07 08:31:44;;;;;;;5.72;2.80;;;13.10;88.30;;;;;;4889203;29;20033;-65
2021/11/07 08:34:10;;;;;;;4.72;2.75;;;13.10;89.20;;;;;;4890572;29;20040;-65
2021/11/07 08:39:09;;;;;;;5.55;2.90;;;13.30;88.10;;;;;;4883136;29;20058;-65
2021/11/07 08:41:42;;;;;;;7.65;2.63;;;13.30;88.10;;;;;;4895167;29;20131;-65
2021/11/07 09:00:30;;;;;;;5.50;2.30;;;13.70;87.40;;;;;;4895764;29;20083;-65
2021/11/07 09:03:20;;;;;;;5.28;2.42;;;13.70;87.40;;;;;;4881499;29;20037;-65
2021/11/07 09:06:03;;;;;;;4.53;2.53;;;13.80;87.50;;;;;;4883693;29;20088;-65
2021/11/07 09:08:30;;;;;;;4.28;2.20;;;13.80;87.40;;;;;;4884365;29;20088;-65
2021/11/07 09:10:58;;;;;;;4.13;2.20;;;14.00;87.30;;;;;;4898402;29;20033;-65
2021/11/07 09:13:24;;;;;;;5.35;2.50;;;14.20;86.70;;;;;;4897862;29;20117;-65
2021/11/07 09:15:51;;;;;;;4.00;1.90;;;14.30;86.10;;;;;;4894616;29;20492;-65
2021/11/07 09:18:18;;;;;;;5.00;2.13;;;14.60;85.40;;;;;;4879886;29;20089;-65
2021/11/07 09:23:37;;;;;;;6.20;2.08;;;14.80;84.40;;;;;;4893562;29;20052;-65
2021/11/07 09:31:26;;;;;;;3.95;1.52;;;14.90;83.90;;;;;;4894348;29;20032;-67
2021/11/07 09:36:36;;;;;;;4.15;1.65;;;14.80;84.00;;;;;;4890950;29;20408;-65
2021/11/07 09:44:49;;;;;;;7.85;1.70;;;14.80;84.40;;;;;;4893265;29;20075;-65
2021/11/07 09:47:15;;;;;;;3.60;1.25;;;14.70;84.30;;;;;;4893366;29;20043;-64
2021/11/07 09:49:46;;;;;;;4.72;1.20;;;14.80;84.20;;;;;;4888649;29;20025;-65
2021/11/07 09:52:20;;;;;;;7.25;1.42;;;15.00;83.20;;;;;;4893097;29;20039;-65
2021/11/07 09:54:54;;;;;;;5.82;1.50;;;15.10;82.50;;;;;;4887514;29;20064;-65
2021/11/07 09:57:23;;;;;;;6.25;1.20;;;15.20;83.10;;;;;;4895572;29;20066;-65
2021/11/07 10:00:00;;;;;;;6.20;1.20;;;15.20;82.60;;;;;;4895737;29;20103;-65
2021/11/07 10:02:28;;;;;;;7.03;1.30;;;15.50;80.90;;;;;;4896426;29;20041;-65
2021/11/07 10:04:56;;;;;;;8.85;1.40;;;15.60;80.20;;;;;;4895579;29;20028;-65
2021/11/07 10:07:26;;;;;;;6.75;1.55;;;15.70;79.90;;;;;;4896984;29;20040;-66
2021/11/07 10:09:56;;;;;;;5.75;1.27;;;15.90;78.60;;;;;;4896254;29;20119;-66
2021/11/07 10:12:36;;;;;;;5.18;1.33;;;15.90;78.40;;;;;;4906797;29;20071;-66
2021/11/07 10:15:05;;;;;;;8.73;1.23;;;15.90;78.50;;;;;;4896591;29;20029;-66
2021/11/07 10:17:44;;;;;;;8.25;1.20;;;15.90;78.20;;;;;;4894476;29;20045;-65
2021/11/07 10:20:26;;;;;;;6.78;1.33;;;15.90;77.90;;;;;;4891364;29;20036;-66
2021/11/07 10:23:07;;;;;;;11.13;1.50;;;16.00;77.20;;;;;;4891511;29;20033;-66
2021/11/07 10:25:39;;;;;;;;;;;16.20;76.60;;;;;;4887567;29;20073;-66
2021/11/07 10:28:15;;;;;;;13.38;1.65;;;16.20;75.50;;;;;;4885527;29;19915;-65
2021/11/07 10:30:49;;;;;;;9.50;1.50;;;16.10;76.10;;;;;;4908970;29;20392;-65
2021/11/07 10:33:39;;;;;;;12.32;1.48;;;16.10;76.20;;;;;;4896604;29;20464;-66
2021/11/07 10:52:38;;;;;;;11.77;2.00;;;17.30;71.70;;;;;;4908710;29;20051;-65
2021/11/07 10:55:16;;;;;;;13.07;1.90;;;17.70;69.60;;;;;;4910272;29;20439;-65
2021/11/07 10:57:48;;;;;;;14.60;2.22;;;17.90;68.70;;;;;;4911878;29;20557;-65
2021/11/07 11:00:24;;;;;;;10.50;2.63;;;18.50;67.60;;;;;;4911549;29;20040;-65
2021/11/07 11:02:53;;;;;;;15.25;2.70;;;20.30;62.70;;;;;;4911179;29;20062;-66
2021/11/07 11:05:26;;;;;;;14.30;2.20;;;21.50;57.70;;;;;;4910835;29;20036;-66
2021/11/07 11:08:04;;;;;;;12.85;2.20;;;20.90;56.80;;;;;;4909022;29;20028;-66
2021/11/07 11:11:08;;;;;;;10.48;2.00;;;21.20;53.50;;;;;;4911344;29;20784;-66
2021/11/07 11:22:06;;;;;;;12.50;2.22;;;18.90;56.90;;;;;;4894839;29;20025;-66
2021/11/07 11:38:17;;;;;;;14.82;2.53;;;21.20;49.80;;;;;;4891664;29;20036;-65
2021/11/07 11:41:04;;;;;;;18.17;2.55;;;20.70;51.50;;;;;;4890354;29;20500;-66
2021/11/07 11:46:07;;;;;;;18.60;2.83;;;19.80;54.00;;;;;;4894936;29;20132;-65
2021/11/07 11:57:09;;;;;;;14.10;2.30;;;19.40;55.50;;;;;;4886323;29;20075;-65
2021/11/07 11:59:52;;;;;;;18.63;2.53;;;19.00;55.90;;;;;;4894029;29;20044;-65
2021/11/07 12:02:27;;;;;;;19.67;2.67;;;18.70;57.10;;;;;;4890392;29;20033;-65
2021/11/07 12:05:33;;;;;;;18.15;2.50;;;18.50;57.80;;;;;;4893271;29;20511;-65
2021/11/07 12:08:12;;;;;;;14.13;2.17;;;18.70;57.50;;;;;;4894240;29;20420;-65
2021/11/07 12:13:33;;;;;;;14.40;2.38;;;18.50;57.10;;;;;;4895397;29;20453;-64
2021/11/07 12:16:05;;;;;;;15.88;2.55;;;18.50;57.60;;;;;;4887790;29;20039;-65
2021/11/07 12:18:31;;;;;;;19.50;2.60;;;18.30;57.80;;;;;;4892576;29;20036;-65
2021/11/07 12:20:57;;;;;;;17.83;2.75;;;18.20;58.30;;;;;;4896158;29;20514;-66
2021/11/07 12:23:33;;;;;;;14.68;2.40;;;18.30;58.40;;;;;;4894591;29;20064;-66
2021/11/07 12:26:24;;;;;;;19.60;2.53;;;18.80;57.30;;;;;;4891979;29;20389;-65
2021/11/07 12:28:53;;;;;;;12.65;2.17;;;18.50;56.70;;;;;;4892345;29;20401;-66
2021/11/07 12:31:19;;;;;;;16.30;2.47;;;18.20;57.20;;;;;;4895241;29;20111;-66
2021/11/07 12:33:47;;;;;;;15.85;2.78;;;18.20;57.70;;;;;;4894173;29;20119;-65
2021/11/07 12:41:38;;;;;;;16.17;2.45;;;19.10;55.40;;;;;;4891713;29;20039;-64
2021/11/07 12:44:06;;;;;;;14.20;2.35;;;20.00;52.80;;;;;;4894535;29;20053;-64
2021/11/07 12:46:47;;;;;;;18.80;2.53;;;20.10;50.80;;;;;;4889749;29;20056;-64
2021/11/07 12:49:16;;;;;;;14.25;2.60;;;20.30;50.20;;;;;;4878455;29;20039;-64
2021/11/07 12:51:55;;;;;;;13.73;2.45;;;21.30;50.40;;;;;;4883920;29;20028;-64
2021/11/07 12:54:24;;;;;;;18.15;2.90;;;21.30;48.80;;;;;;4887242;29;20450;-65
2021/11/07 12:56:58;;;;;;;14.40;2.40;;;22.80;46.10;;;;;;4894194;29;20112;-65
2021/11/07 12:59:29;;;;;;;12.75;2.22;;;21.80;46.00;;;;;;4890853;29;20508;-64
2021/11/07 13:01:59;;;;;;;18.08;2.85;;;21.20;46.10;;;;;;4889039;29;20404;-64
2021/11/07 13:04:25;;;;;;;14.38;2.67;;;21.00;46.90;;;;;;4893096;29;20037;-64
2021/11/07 13:06:55;;;;;;;17.52;2.70;;;21.20;46.70;;;;;;4892426;29;20111;-64
2021/11/07 13:09:31;;;;;;;12.75;2.78;;;21.10;46.90;;;;;;4894147;29;20053;-64
2021/11/07 13:11:57;;;;;;;15.30;2.45;;;20.80;46.40;;;;;;4894533;29;20043;-64
2021/11/07 13:14:46;;;;;;;16.15;2.55;;;20.50;47.50;;;;;;4892006;29;20088;-64
2021/11/07 13:20:09;;;;;;;20.65;2.95;;;19.70;49.30;;;;;;4891827;29;20113;-65
2021/11/07 13:23:06;;;;;;;19.40;2.58;;;19.40;50.70;;;;;;4892138;29;20036;-64
2021/11/07 13:33:39;;;;;;;13.00;2.45;;;20.00;48.40;;;;;;4887099;29;20022;-65
2021/11/07 13:36:06;;;;;;;16.58;2.88;;;20.20;47.20;;;;;;4884991;29;20052;-65
2021/11/07 13:38:39;;;;;;;14.73;2.40;;;20.00;47.80;;;;;;4882452;29;20045;-65
2021/11/07 13:41:22;;;;;;;15.02;2.40;;;20.30;47.70;;;;;;4889162;29;20028;-65
2021/11/07 13:44:03;;;;;;;17.77;2.85;;;21.10;46.00;;;;;;4891308;29;20048;-65
2021/11/07 13:46:29;;;;;;;15.70;2.60;;;21.70;42.20;;;;;;4883999;29;20119;-65
2021/11/07 13:49:03;;;;;;;13.07;2.13;;;20.90;44.00;;;;;;4892480;29;20111;-65
2021/11/07 13:51:30;;;;;;;15.82;2.60;;;20.40;45.30;;;;;;4888430;29;20070;-65
2021/11/07 13:54:04;;;;;;;15.98;2.78;;;20.10;46.40;;;;;;4888777;29;20024;-65
2021/11/07 13:56:31;;;;;;;15.30;2.53;;;19.90;47.30;;;;;;4884022;29;20032;-65
2021/11/07 13:58:59;;;;;;;12.73;2.40;;;20.10;47.60;;;;;;4891734;29;20024;-65
2021/11/07 14:01:31;;;;;;;13.52;2.33;;;20.00;47.50;;;;;;4889814;29;20100;-65
2021/11/07 14:03:58;;;;;;;18.20;2.60;;;19.60;47.90;;;;;;4883580;29;20024;-65
2021/11/07 14:06:34;;;;;;;15.73;2.47;;;19.40;47.50;;;;;;4892769;29;20040;-65
2021/11/07 14:09:03;;;;;;;17.40;2.75;;;19.10;48.30;;;;;;4893902;29;20035;-64
2021/11/07 14:11:35;;;;;;;17.85;2.60;;;18.90;48.70;;;;;;4890094;29;20028;-64
2021/11/07 14:14:07;;;;;;;15.27;2.60;;;18.80;50.00;;;;;;4884521;29;20025;-64
2021/11/07 14:16:53;;;;;;;14.35;2.40;;;18.70;50.00;;;;;;4891985;29;20053;-64
2021/11/07 14:19:19;;;;;;;18.73;2.65;;;18.60;50.60;;;;;;4886586;29;20117;-64
2021/11/07 14:21:50;;;;;;;12.68;2.28;;;18.60;50.60;;;;;;4893048;29;20123;-65
2021/11/07 14:24:25;;;;;;;11.90;2.00;;;18.50;50.20;;;;;;4894190;29;20021;-64
2021/11/07 14:26:55;;;;;;;14.85;2.53;;;18.50;49.70;;;;;;4893171;29;20080;-64
2021/11/07 14:34:45;;;;;;;20.27;3.25;;;18.20;50.70;;;;;;4887615;29;20033;-64
2021/11/07 14:37:26;;;;;;;22.13;6.95;;;18.10;51.20;;;;;;4892780;29;20024;-64
2021/11/07 14:40:07;;;;;;;19.02;5.00;;;17.90;51.90;;;;;;4891476;29;20172;-65
2021/11/07 14:48:23;;;;;;;16.58;2.65;;;17.50;52.10;;;;;;4897531;29;20044;-64
2021/11/07 15:02:07;;;;;;;18.17;2.53;;;17.10;54.30;;;;;;4872840;29;20109;-65
2021/11/07 15:04:43;;;;;;;21.83;4.60;;;17.00;54.60;;;;;;4872176;29;20041;-65
2021/11/07 15:15:17;;;;;;;15.43;3.13;;;17.00;55.70;;;;;;4873930;29;20044;-65
2021/11/07 15:18:06;;;;;;;19.10;2.70;;;16.90;55.50;;;;;;4874760;29;20033;-65
2021/11/07 15:20:38;;;;;;;15.02;2.80;;;16.80;55.90;;;;;;4872266;29;20033;-66
2021/11/07 15:23:04;;;;;;;15.48;2.22;;;16.80;56.00;;;;;;4870071;29;20045;-65
2021/11/07 15:25:37;;;;;;;14.15;2.55;;;16.80;56.10;;;;;;4870544;29;20049;-63
2021/11/07 15:28:13;;;;;;;14.88;2.33;;;16.80;55.90;;;;;;4873724;29;20108;-63
2021/11/07 15:30:41;;;;;;;34.75;3.08;;;16.60;56.00;;;;;;4855776;29;20553;-63
2021/11/07 15:33:15;;;;;;;18.23;2.30;;;16.50;56.50;;;;;;4876534;29;20033;-64
2021/11/07 15:35:51;;;;;;;14.85;2.58;;;16.30;57.00;;;;;;4862443;29;20503;-64
2021/11/07 15:38:23;;;;;;;20.40;2.42;;;16.20;57.60;;;;;;4891663;29;20039;-64
2021/11/07 15:40:55;;;;;;;18.48;2.40;;;16.20;57.80;;;;;;4893082;29;20064;-64
2021/11/07 15:43:27;;;;;;;19.90;3.05;;;16.10;58.00;;;;;;4894746;29;20066;-64
2021/11/07 15:46:06;;;;;;;18.40;2.90;;;16.10;58.40;;;;;;4907932;29;20033;-64
2021/11/07 15:48:43;;;;;;;19.98;2.70;;;16.00;58.30;;;;;;4894472;29;20037;-64
2021/11/07 16:06:55;;;;;;;19.92;2.75;;;15.30;60.30;;;;;;4893992;29;20068;-63
2021/11/07 16:12:34;;;;;;;21.13;2.97;;;15.00;60.80;;;;;;4894870;29;20037;-63
2021/11/07 16:14:50;;;;;;;17.50;2.60;;;14.90;61.20;;;;;;4877383;29;20046;-63
2021/11/07 16:17:21;;;;;;;17.15;2.67;;;14.70;61.60;;;;;;4885749;29;20515;-63
2021/11/07 16:19:48;;;;;;;14.57;2.17;;;14.60;62.10;;;;;;4892504;29;20116;-63